Time;durP1;ratioP1;P1;durP2;ratioP2;P2;SDS_P1;SDS_P2;PMS_P1;PMS_P2;Temp;Humidity;BMP_temperature;BMP_pressure;BME280_temperature;BME280_humidity;BME280_pressure;Samples;Min_cycle;Max_cycle;Signal;HPM_P1;HPM_P2
2023/10/15 00:02:12;;;;;;;7.47;2.90;;;;;;;13.11;53.92;97677.59;5041841;28;20654;-69
2023/10/15 00:04:38;;;;;;;4.47;2.40;;;;;;;13.13;54.18;97676.47;5036956;28;20504;-70
2023/10/15 00:07:06;;;;;;;2.67;2.07;;;;;;;13.14;53.92;97677.28;5037075;28;20634;-69
2023/10/15 00:09:33;;;;;;;3.47;2.10;;;;;;;13.06;53.80;97678.91;5033116;28;20192;-68
2023/10/15 00:11:59;;;;;;;13.10;2.70;;;;;;;13.11;53.61;97674.97;5039157;28;20445;-67
2023/10/15 00:14:25;;;;;;;6.40;2.60;;;;;;;13.08;53.71;97676.09;5039060;28;20888;-68
2023/10/15 00:16:50;;;;;;;4.60;2.47;;;;;;;13.01;53.74;97667.19;5060733;28;20521;-69
2023/10/15 00:19:16;;;;;;;3.77;2.50;;;;;;;12.94;53.95;97667.00;5068074;28;20199;-68
2023/10/15 00:21:41;;;;;;;4.00;2.20;;;;;;;13.02;53.86;97667.03;5044591;28;20184;-70
2023/10/15 00:24:10;;;;;;;3.57;2.23;;;;;;;12.99;53.74;97669.16;5028526;28;20215;-69
2023/10/15 00:26:36;;;;;;;4.73;2.07;;;;;;;12.92;54.55;97666.34;5029015;28;20735;-69
2023/10/15 00:29:02;;;;;;;4.17;2.23;;;;;;;12.95;54.33;97670.44;5027829;28;20454;-69
2023/10/15 00:31:28;;;;;;;2.73;1.90;;;;;;;12.88;54.41;97663.19;5034340;28;20468;-69
2023/10/15 00:33:53;;;;;;;3.90;2.07;;;;;;;12.89;54.51;97662.22;5032201;28;20187;-69
2023/10/15 00:36:19;;;;;;;4.90;2.10;;;;;;;12.93;54.64;97675.03;5028436;28;21080;-68
2023/10/15 00:38:44;;;;;;;4.43;2.10;;;;;;;12.91;53.95;97672.56;5027989;28;20215;-68
2023/10/15 00:41:14;;;;;;;5.60;1.90;;;;;;;12.97;54.32;97668.50;5035522;28;20566;-68
2023/10/15 00:43:55;;;;;;;6.30;2.20;;;;;;;13.07;54.42;97671.81;5032621;28;20249;-68
2023/10/15 00:46:23;;;;;;;5.37;1.93;;;;;;;13.06;54.51;97668.38;5042053;28;20497;-68
2023/10/15 00:48:49;;;;;;;3.83;2.20;;;;;;;13.16;54.90;97672.69;5040225;28;20437;-68
2023/10/15 00:51:14;;;;;;;8.77;2.20;;;;;;;13.24;54.42;97662.19;5032006;28;20423;-68
2023/10/15 00:53:50;;;;;;;5.43;1.90;;;;;;;13.16;54.61;97667.44;5026512;28;20435;-68
2023/10/15 00:56:18;;;;;;;2.70;1.83;;;;;;;13.15;54.62;97657.88;5028539;28;20210;-68
2023/10/15 01:03:48;;;;;;;4.43;2.10;;;;;;;13.07;54.72;97650.78;5031211;28;20240;-69
2023/10/15 01:06:31;;;;;;;10.53;2.20;;;;;;;13.03;55.13;97650.28;5040971;28;20473;-68
2023/10/15 01:09:08;;;;;;;2.10;1.80;;;;;;;13.10;55.24;97650.47;5037726;28;20432;-69
2023/10/15 01:11:38;;;;;;;5.13;2.27;;;;;;;13.08;55.46;97647.16;5030209;28;20430;-66
2023/10/15 01:14:05;;;;;;;5.90;2.10;;;;;;;13.10;55.46;97645.22;5031002;28;20422;-68
2023/10/15 01:16:31;;;;;;;2.60;1.90;;;;;;;13.13;55.26;97641.44;5039251;28;20443;-68
2023/10/15 01:21:43;;;;;;;3.83;1.73;;;;;;;13.25;55.37;97648.06;5037934;28;20919;-69
2023/10/15 01:24:08;;;;;;;4.10;2.30;;;;;;;13.25;55.68;97645.44;5037848;28;20437;-68
2023/10/15 01:26:36;;;;;;;4.07;1.93;;;;;;;13.24;55.52;97641.13;5031597;28;20462;-70
2023/10/15 01:29:05;;;;;;;5.00;2.20;;;;;;;13.23;56.02;97647.41;5042889;28;20315;-68
2023/10/15 01:31:38;;;;;;;5.10;1.90;;;;;;;13.24;55.82;97646.41;5024331;28;20426;-68
2023/10/15 01:34:04;;;;;;;10.83;1.77;;;;;;;13.32;55.61;97646.47;5031140;28;20515;-68
2023/10/15 01:36:30;;;;;;;4.73;2.00;;;;;;;13.40;55.66;97640.44;5024927;28;20453;-68
2023/10/15 01:38:58;;;;;;;3.47;1.87;;;;;;;13.48;55.53;97648.34;5034075;28;20485;-68
2023/10/15 01:41:25;;;;;;;4.40;1.30;;;;;;;13.49;54.60;97644.72;5037261;28;20253;-69
2023/10/15 01:43:56;;;;;;;5.87;2.50;;;;;;;13.46;54.16;97641.59;5034993;28;20881;-68
2023/10/15 01:46:45;;;;;;;10.43;2.10;;;;;;;13.40;53.73;97643.06;5028912;28;20492;-67
2023/10/15 01:49:17;;;;;;;3.30;1.80;;;;;;;13.34;53.51;97644.50;5037340;28;20491;-68
2023/10/15 01:51:44;;;;;;;5.60;1.60;;;;;;;13.42;53.34;97648.16;5041737;28;20422;-68
2023/10/15 01:54:10;;;;;;;4.13;1.57;;;;;;;13.50;52.96;97646.38;5031570;28;20437;-67
2023/10/15 01:56:39;;;;;;;8.60;1.90;;;;;;;13.58;52.82;97647.38;5036674;28;21157;-68
2023/10/15 01:59:08;;;;;;;6.33;1.70;;;;;;;13.59;53.00;97639.34;5033009;28;20191;-68
2023/10/15 02:01:40;;;;;;;6.77;2.07;;;;;;;13.61;53.59;97642.59;5032083;28;20425;-68
2023/10/15 02:04:09;;;;;;;3.93;1.63;;;;;;;13.63;54.01;97639.84;5036718;28;20426;-68
2023/10/15 02:06:42;;;;;;;4.53;1.80;;;;;;;13.69;54.67;97644.44;5032207;28;20465;-69
2023/10/15 02:09:12;;;;;;;5.03;2.00;;;;;;;13.62;54.77;97641.63;5016009;28;20431;-68
2023/10/15 02:11:44;;;;;;;3.43;1.53;;;;;;;13.62;54.68;97644.25;5032982;28;20418;-67
2023/10/15 02:14:16;;;;;;;4.23;2.00;;;;;;;13.60;54.96;97637.50;5033323;28;20430;-69
2023/10/15 02:16:49;;;;;;;3.73;1.70;;;;;;;13.58;54.82;97637.69;5030094;28;20985;-68
2023/10/15 02:19:19;;;;;;;4.97;1.80;;;;;;;13.60;54.47;97635.72;5029170;28;20454;-69
2023/10/15 02:21:49;;;;;;;4.37;1.50;;;;;;;13.62;55.03;97625.81;5031048;28;20472;-68
2023/10/15 02:24:15;;;;;;;3.23;2.00;;;;;;;13.63;55.12;97624.84;5031905;28;20453;-68
2023/10/15 02:26:40;;;;;;;5.90;3.27;;;;;;;13.63;55.18;97618.75;5029822;28;21046;-69
2023/10/15 02:29:07;;;;;;;7.77;2.20;;;;;;;13.60;55.18;97611.19;5041121;28;20187;-68
2023/10/15 02:31:41;;;;;;;5.27;1.70;;;;;;;13.59;55.24;97623.53;5029427;28;20192;-68
2023/10/15 02:34:06;;;;;;;3.80;1.33;;;;;;;13.63;55.38;97613.50;5028188;28;20831;-70
2023/10/15 02:36:32;;;;;;;3.20;1.80;;;;;;;13.59;55.51;97618.25;5030046;28;20450;-69
2023/10/15 02:38:58;;;;;;;5.77;1.90;;;;;;;13.63;55.68;97619.56;5033939;28;20233;-68
2023/10/15 02:41:40;;;;;;;5.67;1.93;;;;;;;13.63;55.04;97621.41;5037500;28;20191;-69
2023/10/15 02:44:12;;;;;;;4.13;1.80;;;;;;;13.62;55.12;97620.56;5018207;28;20829;-69
2023/10/15 02:46:39;;;;;;;4.67;1.77;;;;;;;13.63;55.00;97616.94;5029486;28;20473;-68
2023/10/15 02:49:15;;;;;;;6.73;2.30;;;;;;;13.67;55.29;97615.63;5033946;28;20454;-69
2023/10/15 02:51:41;;;;;;;3.10;1.80;;;;;;;13.65;55.62;97612.34;5031814;28;20977;-69
2023/10/15 02:54:18;;;;;;;6.97;1.87;;;;;;;13.71;55.80;97613.50;5034186;28;20889;-70
2023/10/15 02:56:45;;;;;;;5.77;1.87;;;;;;;13.80;55.97;97616.97;5030129;28;20520;-69
2023/10/15 02:59:10;;;;;;;7.60;1.97;;;;;;;13.70;55.70;97619.75;5029060;28;20431;-69
2023/10/15 03:01:36;;;;;;;5.43;1.80;;;;;;;13.71;56.15;97620.59;5031038;28;20428;-69
2023/10/15 03:04:09;;;;;;;5.20;1.60;;;;;;;13.75;56.00;97616.63;5029163;28;20672;-69
2023/10/15 03:06:34;;;;;;;7.30;1.93;;;;;;;13.74;55.90;97622.88;5036788;28;20264;-68
2023/10/15 03:09:00;;;;;;;3.80;1.97;;;;;;;13.72;55.96;97622.25;5034976;28;20453;-68
2023/10/15 03:11:31;;;;;;;4.73;1.97;;;;;;;13.72;55.80;97615.16;5043125;28;20183;-69
2023/10/15 03:13:57;;;;;;;2.90;1.47;;;;;;;13.75;56.21;97629.78;5031011;28;20438;-68
2023/10/15 03:16:26;;;;;;;5.50;2.00;;;;;;;13.73;56.53;97624.69;5037738;28;20433;-68
2023/10/15 03:18:52;;;;;;;7.43;2.10;;;;;;;13.69;56.74;97622.56;5023430;28;20192;-68
2023/10/15 03:21:26;;;;;;;3.33;1.80;;;;;;;13.68;57.14;97626.97;5027771;28;20435;-69
2023/10/15 03:23:55;;;;;;;2.90;1.40;;;;;;;13.69;57.24;97625.19;5019056;28;20202;-69
2023/10/15 03:26:24;;;;;;;3.13;1.87;;;;;;;13.72;57.49;97622.25;5035436;28;20469;-69
2023/10/15 03:28:58;;;;;;;4.47;1.67;;;;;;;13.71;57.72;97620.59;5031198;28;20541;-69
2023/10/15 03:31:27;;;;;;;6.50;1.97;;;;;;;13.70;57.12;97613.66;5026769;28;20477;-68
2023/10/15 03:34:04;;;;;;;7.03;1.60;;;;;;;13.69;57.33;97612.03;5039234;28;20422;-68
2023/10/15 03:36:42;;;;;;;6.77;2.00;;;;;;;13.73;56.88;97608.09;5035076;28;20446;-69
2023/10/15 03:39:14;;;;;;;2.40;1.50;;;;;;;13.80;56.15;97609.06;5031661;28;20931;-68
2023/10/15 03:41:40;;;;;;;3.70;1.60;;;;;;;13.84;55.80;97615.66;5023949;28;20425;-68
2023/10/15 03:44:05;;;;;;;2.97;1.17;;;;;;;13.83;55.44;97609.56;5027884;28;20442;-69
2023/10/15 03:46:34;;;;;;;6.87;1.67;;;;;;;13.88;55.50;97606.44;5028109;28;20720;-69
2023/10/15 03:49:07;;;;;;;5.30;1.70;;;;;;;13.88;55.72;97606.44;5035854;28;20204;-69
2023/10/15 03:51:40;;;;;;;5.40;1.53;;;;;;;13.90;55.57;97620.28;5022509;28;20423;-68
2023/10/15 03:54:07;;;;;;;6.70;2.00;;;;;;;13.92;55.80;97620.94;5033189;28;20469;-68
2023/10/15 03:56:34;;;;;;;4.33;2.00;;;;;;;13.92;56.23;97609.59;5030401;28;20580;-68
2023/10/15 03:59:01;;;;;;;4.60;1.50;;;;;;;13.93;56.67;97609.41;5027518;28;20454;-68
2023/10/15 04:01:27;;;;;;;1.30;1.20;;;;;;;13.89;57.21;97613.34;5034066;28;20998;-68
2023/10/15 04:03:53;;;;;;;3.10;1.50;;;;;;;13.91;57.37;97618.47;5041944;28;21075;-68
2023/10/15 04:06:19;;;;;;;5.40;2.20;;;;;;;13.86;57.55;97629.47;5030056;28;20469;-68
2023/10/15 04:11:37;;;;;;;2.33;1.40;;;;;;;13.79;57.10;97616.16;5029094;28;20430;-68
2023/10/15 04:16:47;;;;;;;5.27;2.00;;;;;;;13.84;57.23;97623.56;5032270;28;20484;-69
2023/10/15 04:19:17;;;;;;;3.93;1.50;;;;;;;13.83;57.37;97624.56;5039154;28;20429;-69
2023/10/15 04:21:43;;;;;;;4.17;1.60;;;;;;;13.85;56.97;97627.84;5038089;28;20277;-69
2023/10/15 04:24:09;;;;;;;4.20;1.60;;;;;;;13.80;56.69;97620.41;5032158;28;20430;-67
2023/10/15 04:26:40;;;;;;;9.00;1.70;;;;;;;13.83;56.73;97616.66;5026641;28;20479;-68
2023/10/15 04:29:16;;;;;;;3.87;1.70;;;;;;;13.81;56.79;97619.44;5034123;28;20214;-69
2023/10/15 04:32:00;;;;;;;4.03;1.60;;;;;;;13.82;56.73;97613.19;5032070;28;20495;-68
2023/10/15 04:34:27;;;;;;;6.70;1.70;;;;;;;13.83;56.50;97609.56;5034576;28;20426;-68
2023/10/15 04:36:57;;;;;;;4.50;1.70;;;;;;;13.87;57.27;97615.31;5039395;28;20442;-68
2023/10/15 04:39:22;;;;;;;3.33;1.80;;;;;;;13.84;57.82;97618.31;5047344;28;20425;-68
2023/10/15 04:41:49;;;;;;;2.60;1.73;;;;;;;13.83;57.96;97635.09;5036162;28;20418;-69
2023/10/15 04:44:31;;;;;;;3.07;1.50;;;;;;;13.82;58.30;97622.91;5037646;28;20187;-68
2023/10/15 04:47:05;;;;;;;3.03;1.50;;;;;;;13.86;58.49;97613.66;5030755;28;20458;-68
2023/10/15 04:49:32;;;;;;;5.50;1.33;;;;;;;13.83;58.62;97624.56;5031272;28;20450;-69
2023/10/15 04:51:58;;;;;;;4.97;1.70;;;;;;;13.84;57.56;97626.22;5031758;28;20980;-68
2023/10/15 04:54:24;;;;;;;4.53;1.97;;;;;;;13.77;57.25;97630.47;5036186;28;20422;-68
2023/10/15 04:56:51;;;;;;;3.40;1.63;;;;;;;13.78;57.34;97629.47;5032286;28;20449;-68
2023/10/15 04:59:16;;;;;;;7.17;1.60;;;;;;;13.81;57.67;97627.34;5031053;28;20190;-68
2023/10/15 05:01:42;;;;;;;3.27;1.47;;;;;;;13.86;57.32;97632.13;5038848;28;20842;-68
2023/10/15 05:04:09;;;;;;;3.20;1.80;;;;;;;13.74;57.35;97628.97;5040380;28;20188;-68
2023/10/15 05:06:35;;;;;;;4.80;1.57;;;;;;;13.72;56.31;97630.16;5029989;28;20488;-68
2023/10/15 05:09:01;;;;;;;6.17;1.70;;;;;;;13.75;56.48;97627.16;5033208;28;20517;-67
2023/10/15 05:11:28;;;;;;;8.77;2.20;;;;;;;13.74;56.49;97636.03;5031408;28;20981;-67
2023/10/15 05:13:53;;;;;;;3.87;1.50;;;;;;;13.69;56.56;97639.16;5030738;28;20855;-68
2023/10/15 05:16:19;;;;;;;4.27;2.03;;;;;;;13.64;56.93;97638.84;5038509;28;20438;-69
2023/10/15 05:18:47;;;;;;;3.53;1.47;;;;;;;13.58;56.56;97632.41;5036420;28;20199;-68
2023/10/15 05:21:13;;;;;;;2.17;1.40;;;;;;;13.63;56.74;97630.09;5039060;28;20278;-68
2023/10/15 05:23:38;;;;;;;4.80;1.70;;;;;;;13.70;56.82;97634.75;5026753;28;20942;-68
2023/10/15 05:26:04;;;;;;;6.90;2.30;;;;;;;13.70;56.83;97630.28;5027235;28;20641;-68
2023/10/15 05:28:29;;;;;;;3.50;1.60;;;;;;;13.66;57.17;97624.53;5035393;28;20195;-68
2023/10/15 05:30:57;;;;;;;5.03;1.83;;;;;;;13.64;57.19;97628.31;5030723;28;20223;-68
2023/10/15 05:33:23;;;;;;;2.13;1.23;;;;;;;13.66;56.84;97632.44;5026772;28;20190;-68
2023/10/15 05:35:49;;;;;;;3.93;1.53;;;;;;;13.56;56.92;97634.38;5041638;28;20461;-68
2023/10/15 05:38:16;;;;;;;4.00;1.70;;;;;;;13.50;57.56;97635.00;5032545;28;20250;-68
2023/10/15 05:40:42;;;;;;;4.80;1.70;;;;;;;13.47;57.47;97641.44;5034200;28;20196;-68
2023/10/15 05:43:07;;;;;;;3.80;2.07;;;;;;;13.49;57.71;97639.47;5043398;28;20433;-68
2023/10/15 05:45:33;;;;;;;6.77;2.27;;;;;;;13.46;58.02;97645.03;5033448;28;20250;-68
2023/10/15 05:47:58;;;;;;;4.47;1.63;;;;;;;13.49;58.21;97650.00;5031524;28;20188;-69
2023/10/15 05:50:24;;;;;;;9.00;1.90;;;;;;;13.52;58.21;97654.94;5030424;28;20188;-68
2023/10/15 05:52:50;;;;;;;4.10;1.70;;;;;;;13.53;58.45;97655.75;5025655;28;20230;-69
2023/10/15 05:55:17;;;;;;;4.13;1.87;;;;;;;13.52;58.58;97659.38;5037226;28;20899;-69
2023/10/15 05:57:43;;;;;;;3.00;1.47;;;;;;;13.50;58.25;97667.44;5037249;28;20565;-70
2023/10/15 06:00:18;;;;;;;5.10;1.80;;;;;;;13.52;58.04;97673.38;5038623;28;20484;-69
2023/10/15 06:02:44;;;;;;;4.83;2.03;;;;;;;13.50;57.97;97669.25;5024963;28;20446;-70
2023/10/15 06:05:13;;;;;;;3.17;1.70;;;;;;;13.52;58.36;97667.28;5030395;28;20478;-69
2023/10/15 06:07:41;;;;;;;6.67;1.80;;;;;;;13.46;58.28;97675.81;5032833;28;20460;-69
2023/10/15 06:10:08;;;;;;;6.53;2.10;;;;;;;13.48;58.35;97673.88;5030125;28;20790;-69
2023/10/15 06:12:33;;;;;;;5.67;1.50;;;;;;;13.46;58.42;97668.75;5038702;28;20443;-69
2023/10/15 06:14:59;;;;;;;2.33;1.40;;;;;;;13.47;58.64;97672.22;5031446;28;20430;-69
2023/10/15 06:17:25;;;;;;;3.50;1.60;;;;;;;13.52;58.62;97667.28;5030090;28;20687;-69
2023/10/15 06:19:50;;;;;;;3.73;1.60;;;;;;;13.54;58.68;97678.47;5034545;28;20521;-69
2023/10/15 06:22:16;;;;;;;5.13;1.67;;;;;;;13.59;59.38;97670.09;5029983;28;20668;-70
2023/10/15 06:24:46;;;;;;;3.17;1.80;;;;;;;13.60;59.56;97671.75;5037234;28;20274;-69
2023/10/15 06:27:12;;;;;;;6.47;2.10;;;;;;;13.57;59.67;97686.06;5029006;28;20628;-68
2023/10/15 06:29:37;;;;;;;4.40;1.73;;;;;;;13.53;60.06;97682.09;5034252;28;20538;-70
2023/10/15 06:32:03;;;;;;;2.43;1.70;;;;;;;13.54;60.31;97683.75;5037830;28;20275;-69
2023/10/15 06:34:29;;;;;;;4.30;1.50;;;;;;;13.54;59.80;97683.75;5029632;28;20208;-70
2023/10/15 06:36:55;;;;;;;6.47;1.77;;;;;;;13.56;60.12;97692.31;5037043;28;20445;-68
2023/10/15 06:39:21;;;;;;;4.43;1.70;;;;;;;13.52;60.09;97690.97;5035417;28;20333;-69
2023/10/15 06:41:47;;;;;;;5.63;1.90;;;;;;;13.56;60.28;97692.31;5029227;28;20231;-70
2023/10/15 06:44:13;;;;;;;3.20;2.10;;;;;;;13.56;59.81;97687.03;5036627;28;20903;-71
2023/10/15 06:46:38;;;;;;;4.40;2.00;;;;;;;13.56;59.70;97691.47;5028869;28;20310;-70
2023/10/15 06:49:04;;;;;;;6.10;1.90;;;;;;;13.54;59.89;97689.00;5032825;28;20728;-70
2023/10/15 06:51:30;;;;;;;3.90;2.00;;;;;;;13.55;60.03;97698.56;5030897;28;20254;-71
2023/10/15 06:53:55;;;;;;;3.43;2.03;;;;;;;13.62;59.66;97702.19;5030573;28;20431;-72
2023/10/15 06:56:21;;;;;;;5.00;2.13;;;;;;;13.65;59.62;97711.59;5030150;28;20212;-71
2023/10/15 06:58:47;;;;;;;5.93;2.40;;;;;;;13.65;59.19;97715.06;5035139;28;20191;-72
2023/10/15 07:01:13;;;;;;;4.80;2.13;;;;;;;13.71;59.13;97725.94;5040651;28;20429;-72
2023/10/15 07:03:38;;;;;;;6.77;2.87;;;;;;;13.74;58.49;97731.72;5031530;28;20257;-69
2023/10/15 07:06:04;;;;;;;6.87;2.93;;;;;;;13.67;58.33;97726.25;5032772;28;20465;-69
2023/10/15 07:08:30;;;;;;;5.30;2.43;;;;;;;13.70;58.34;97734.81;5029144;28;20199;-70
2023/10/15 07:10:59;;;;;;;5.10;2.37;;;;;;;13.74;58.19;97736.13;5023960;28;20231;-70
2023/10/15 07:13:24;;;;;;;6.87;3.10;;;;;;;13.79;58.11;97736.50;5029052;28;20435;-70
2023/10/15 07:15:50;;;;;;;5.40;2.83;;;;;;;13.88;58.24;97735.53;5041540;28;20955;-70
2023/10/15 07:18:15;;;;;;;7.80;3.23;;;;;;;13.98;58.17;97728.34;5032413;28;20271;-70
2023/10/15 07:20:40;;;;;;;5.47;2.80;;;;;;;14.06;57.92;97729.34;5037112;28;20200;-70
2023/10/15 07:23:06;;;;;;;7.43;2.60;;;;;;;14.14;57.61;97734.59;5039777;28;20720;-71
2023/10/15 07:25:34;;;;;;;7.90;3.30;;;;;;;14.16;57.38;97724.72;5031910;28;20215;-70
2023/10/15 07:28:00;;;;;;;5.03;2.73;;;;;;;14.17;57.33;97729.00;5016941;28;20270;-70
2023/10/15 07:30:26;;;;;;;7.50;3.33;;;;;;;14.31;57.39;97732.81;5018366;28;20944;-70
2023/10/15 07:32:57;;;;;;;6.63;3.20;;;;;;;14.40;56.93;97741.56;5025512;28;20261;-70
2023/10/15 07:35:25;;;;;;;8.30;2.93;;;;;;;14.48;56.49;97738.13;5029516;28;20195;-70
2023/10/15 07:37:51;;;;;;;8.53;3.33;;;;;;;14.51;55.38;97741.22;5028346;28;20441;-70
2023/10/15 07:40:22;;;;;;;6.90;3.20;;;;;;;14.54;55.28;97740.09;5025501;28;20552;-69
2023/10/15 07:42:52;;;;;;;7.77;3.20;;;;;;;14.72;55.52;97745.25;5032243;28;20441;-70
2023/10/15 07:45:19;;;;;;;6.20;3.40;;;;;;;14.90;55.76;97745.88;5036556;28;20466;-70
2023/10/15 07:47:45;;;;;;;9.00;3.60;;;;;;;15.13;55.23;97739.09;5028134;28;20446;-70
2023/10/15 07:50:18;;;;;;;7.57;3.10;;;;;;;15.24;53.48;97740.56;5025644;28;20517;-69
2023/10/15 07:52:48;;;;;;;6.70;2.87;;;;;;;15.35;52.45;97735.72;5016516;28;21002;-70
2023/10/15 07:55:13;;;;;;;11.60;3.50;;;;;;;15.60;52.80;97740.09;5035232;28;20422;-68
2023/10/15 07:57:39;;;;;;;10.20;3.20;;;;;;;15.86;52.93;97731.91;5038906;28;20449;-69
2023/10/15 08:00:06;;;;;;;8.63;3.10;;;;;;;16.08;51.78;97738.25;5051413;28;20217;-71
2023/10/15 08:02:32;;;;;;;5.10;2.83;;;;;;;16.35;51.43;97737.91;5044154;28;20660;-71
2023/10/15 08:04:57;;;;;;;6.40;2.30;;;;;;;16.68;51.04;97741.13;5042917;28;20453;-71
2023/10/15 08:07:23;;;;;;;5.40;2.20;;;;;;;16.91;49.10;97736.78;5047913;28;20203;-70
2023/10/15 08:09:50;;;;;;;5.00;1.97;;;;;;;17.22;49.19;97739.34;5043244;28;20184;-71
2023/10/15 08:12:16;;;;;;;12.17;2.67;;;;;;;17.52;48.02;97741.97;5049760;28;20186;-69
2023/10/15 08:14:41;;;;;;;5.67;2.07;;;;;;;17.80;46.49;97741.28;5028766;28;20932;-70
2023/10/15 08:17:07;;;;;;;4.00;1.70;;;;;;;18.07;45.67;97745.13;5039784;28;20448;-70
2023/10/15 08:19:33;;;;;;;5.50;2.10;;;;;;;18.36;44.34;97745.22;5040659;28;20191;-71
2023/10/15 08:21:59;;;;;;;6.00;1.80;;;;;;;18.62;42.92;97746.47;5038029;28;20227;-70
2023/10/15 08:24:25;;;;;;;4.83;2.00;;;;;;;18.81;41.83;97751.13;5028349;28;20877;-69
2023/10/15 08:26:50;;;;;;;4.93;1.70;;;;;;;18.86;41.27;97748.72;5030500;28;20208;-70
2023/10/15 08:29:18;;;;;;;4.67;1.80;;;;;;;18.69;40.86;97755.31;5024668;28;20179;-71
2023/10/15 08:31:46;;;;;;;6.93;1.80;;;;;;;18.32;41.72;97762.50;5035293;28;20190;-69
2023/10/15 08:34:12;;;;;;;7.33;2.20;;;;;;;18.07;41.90;97760.19;5029862;28;20414;-70
2023/10/15 08:36:38;;;;;;;5.90;1.77;;;;;;;17.86;41.87;97758.28;5028346;28;20445;-70
2023/10/15 08:39:06;;;;;;;4.27;1.60;;;;;;;17.58;42.42;97751.84;5027355;28;20430;-70
2023/10/15 08:41:37;;;;;;;8.83;2.10;;;;;;;17.45;43.19;97746.38;5029600;28;21043;-70
2023/10/15 08:44:12;;;;;;;7.90;2.00;;;;;;;17.34;43.95;97752.94;5032669;28;20426;-69
2023/10/15 08:46:39;;;;;;;5.60;1.70;;;;;;;17.47;43.98;97749.66;5029551;28;20551;-69
2023/10/15 08:49:08;;;;;;;4.70;1.83;;;;;;;17.77;44.10;97746.97;5026910;28;20422;-70
2023/10/15 08:51:37;;;;;;;4.70;1.67;;;;;;;18.22;44.04;97744.25;5033292;28;20459;-70
2023/10/15 08:54:03;;;;;;;6.03;1.50;;;;;;;18.60;41.82;97738.69;5035950;28;20430;-69
2023/10/15 08:56:33;;;;;;;6.20;1.80;;;;;;;18.66;41.51;97747.72;5022742;28;20503;-70
2023/10/15 08:58:59;;;;;;;5.60;1.40;;;;;;;18.55;40.33;97733.94;5034591;28;20488;-69
2023/10/15 09:01:25;;;;;;;5.67;1.60;;;;;;;18.76;39.79;97752.72;5029371;28;20433;-70
2023/10/15 09:03:52;;;;;;;7.43;1.50;;;;;;;18.62;40.12;97754.44;5044402;28;20839;-69
2023/10/15 09:06:19;;;;;;;6.40;1.70;;;;;;;18.43;39.38;97740.78;5030825;28;20789;-70
2023/10/15 09:08:45;;;;;;;6.57;1.60;;;;;;;18.04;40.20;97756.09;5024539;28;20501;-70
2023/10/15 09:11:11;;;;;;;3.53;1.23;;;;;;;17.85;40.62;97749.53;5023731;28;20430;-69
2023/10/15 09:13:37;;;;;;;5.87;1.60;;;;;;;17.52;41.32;97757.88;5017806;28;20797;-70
2023/10/15 09:16:07;;;;;;;5.00;1.27;;;;;;;17.20;42.12;97767.81;5036873;28;20676;-70
2023/10/15 09:18:36;;;;;;;1.87;1.13;;;;;;;16.84;41.70;97768.44;5033947;28;20476;-70
2023/10/15 09:21:05;;;;;;;3.30;1.20;;;;;;;16.59;42.23;97768.66;5039857;28;20957;-72
2023/10/15 09:23:32;;;;;;;3.70;1.43;;;;;;;16.50;42.57;97764.44;5025901;28;20437;-69
2023/10/15 09:26:01;;;;;;;2.17;1.10;;;;;;;16.43;43.51;97770.41;5032152;28;20454;-70
2023/10/15 09:28:30;;;;;;;4.83;1.53;;;;;;;16.38;44.57;97771.94;5031407;28;20800;-70
2023/10/15 09:31:09;;;;;;;4.40;1.60;;;;;;;16.27;45.55;97786.38;5032109;28;21005;-71
2023/10/15 09:33:36;;;;;;;5.53;1.57;;;;;;;16.18;47.27;97777.69;5031227;28;20429;-72
2023/10/15 09:36:02;;;;;;;5.80;1.70;;;;;;;16.16;47.71;97787.63;5028784;28;21029;-71
2023/10/15 09:38:31;;;;;;;3.20;1.70;;;;;;;16.23;48.38;97795.69;5037617;28;20514;-69
2023/10/15 09:41:00;;;;;;;6.27;1.60;;;;;;;16.35;48.28;97796.09;5027904;28;20458;-70
2023/10/15 09:43:26;;;;;;;6.57;1.57;;;;;;;16.39;47.95;97786.81;5040311;28;20868;-71
2023/10/15 09:45:54;;;;;;;5.00;1.90;;;;;;;16.42;47.38;97784.63;5034147;28;20474;-71
2023/10/15 09:48:24;;;;;;;5.00;1.93;;;;;;;16.48;46.92;97784.94;5028758;28;21307;-70
2023/10/15 09:50:51;;;;;;;5.80;2.10;;;;;;;16.95;46.97;97783.94;5035981;28;20532;-69
2023/10/15 09:53:17;;;;;;;5.87;1.93;;;;;;;17.65;46.03;97781.88;5032584;28;20427;-70
2023/10/15 09:55:43;;;;;;;5.40;1.83;;;;;;;18.35;44.00;97786.81;5035692;28;20517;-70
2023/10/15 09:58:10;;;;;;;8.53;2.20;;;;;;;18.91;42.16;97782.66;5031596;28;20551;-71
2023/10/15 10:01:08;;;;;;;6.97;2.30;;;;;;;19.49;40.40;97774.53;5036054;28;20445;-69
2023/10/15 10:03:49;;;;;;;4.30;2.17;;;;;;;20.19;39.35;97772.78;5058542;28;20437;-70
2023/10/15 10:06:52;;;;;;;3.20;1.70;;;;;;;20.57;37.11;97769.59;5029400;28;20462;-71
2023/10/15 10:09:54;;;;;;;7.10;1.83;;;;;;;21.04;36.45;97774.16;5032763;28;20516;-70
2023/10/15 10:12:41;;;;;;;13.77;1.73;;;;;;;21.49;35.61;97761.78;5032721;28;20410;-70
2023/10/15 10:15:42;;;;;;;3.83;1.40;;;;;;;21.86;33.18;97766.63;5029305;28;20511;-71
2023/10/15 10:18:08;;;;;;;3.50;1.60;;;;;;;22.36;33.69;97759.81;5029540;28;20492;-69
2023/10/15 10:20:36;;;;;;;4.10;1.60;;;;;;;22.95;33.02;97764.94;5028673;28;20438;-71
2023/10/15 10:23:08;;;;;;;4.00;1.33;;;;;;;22.98;31.02;97757.34;5029856;28;20561;-70
2023/10/15 10:25:36;;;;;;;4.17;1.87;;;;;;;22.89;31.22;97760.50;5033720;28;20465;-71
2023/10/15 10:28:07;;;;;;;5.23;2.20;;;;;;;22.46;30.77;97760.19;5027036;28;20947;-70
2023/10/15 10:30:32;;;;;;;4.77;1.47;;;;;;;22.44;30.24;97753.41;5028725;28;20441;-70
2023/10/15 10:33:02;;;;;;;5.03;2.60;;;;;;;22.43;30.50;97757.13;5033051;28;20419;-70
2023/10/15 10:35:27;;;;;;;3.23;1.93;;;;;;;22.61;29.69;97745.69;5026487;28;20252;-69
2023/10/15 10:38:19;;;;;;;6.27;1.90;;;;;;;22.96;29.99;97748.72;5025762;28;20443;-70
2023/10/15 10:40:59;;;;;;;5.53;1.60;;;;;;;23.25;29.12;97734.91;5020082;28;20243;-70
2023/10/15 10:43:26;;;;;;;5.10;1.60;;;;;;;23.32;29.32;97732.97;5033518;28;20871;-70
2023/10/15 10:46:01;;;;;;;2.30;1.20;;;;;;;23.46;28.51;97733.66;5033334;28;20466;-71
2023/10/15 10:48:38;;;;;;;3.33;1.60;;;;;;;23.46;27.82;97747.84;5034510;28;20532;-70
2023/10/15 10:51:11;;;;;;;3.67;1.13;;;;;;;23.55;28.30;97744.88;5028459;28;20506;-70
2023/10/15 10:53:37;;;;;;;3.90;1.47;;;;;;;23.13;27.58;97750.81;5032623;28;20438;-70
2023/10/15 10:56:04;;;;;;;4.07;1.27;;;;;;;22.63;27.88;97752.44;5030043;28;20532;-70
2023/10/15 10:58:29;;;;;;;6.73;1.30;;;;;;;22.55;28.29;97753.56;5028698;28;20443;-70
2023/10/15 11:00:56;;;;;;;4.43;1.00;;;;;;;22.94;28.38;97760.63;5031151;28;20422;-71
2023/10/15 11:03:22;;;;;;;1.40;0.90;;;;;;;22.79;26.54;97758.31;5040324;28;20294;-70
2023/10/15 11:05:48;;;;;;;3.33;1.10;;;;;;;22.53;27.34;97773.47;5030377;28;20469;-70
2023/10/15 11:08:20;;;;;;;1.77;1.00;;;;;;;22.66;27.48;97777.94;5034040;28;20816;-70
2023/10/15 11:10:45;;;;;;;1.50;0.80;;;;;;;22.23;28.34;97774.88;5031690;28;20198;-69
2023/10/15 11:13:12;;;;;;;2.60;1.10;;;;;;;22.17;28.37;97778.41;5034964;28;22020;-70
2023/10/15 11:15:38;;;;;;;1.70;1.10;;;;;;;21.91;29.01;97774.81;5026652;28;20238;-70
2023/10/15 11:18:07;;;;;;;3.00;1.70;;;;;;;21.56;29.67;97769.75;5021369;28;20952;-70
2023/10/15 11:20:35;;;;;;;3.33;1.40;;;;;;;21.10;29.64;97776.00;5021794;28;20245;-70
2023/10/15 11:23:06;;;;;;;2.43;1.50;;;;;;;20.59;30.03;97793.38;5030192;28;20866;-70
2023/10/15 11:25:34;;;;;;;4.97;1.80;;;;;;;20.22;31.61;97781.22;5030528;28;20466;-69
2023/10/15 11:28:04;;;;;;;6.20;1.70;;;;;;;19.86;32.09;97787.59;5010966;28;20426;-69
2023/10/15 11:30:31;;;;;;;6.40;2.60;;;;;;;19.53;32.53;97782.09;5032357;28;20440;-69
2023/10/15 11:32:56;;;;;;;4.93;1.67;;;;;;;19.44;32.60;97787.56;5029209;28;20513;-69
2023/10/15 11:35:22;;;;;;;2.50;1.10;;;;;;;19.22;33.34;97785.97;5032091;28;21014;-69
2023/10/15 11:37:50;;;;;;;2.93;1.20;;;;;;;18.90;33.64;97785.53;5040562;28;20674;-69
2023/10/15 11:40:17;;;;;;;3.53;1.77;;;;;;;18.78;34.39;97791.31;5026431;28;20199;-69
2023/10/15 11:42:50;;;;;;;4.20;1.80;;;;;;;19.21;34.20;97789.66;5028034;28;20433;-68
2023/10/15 11:45:25;;;;;;;6.10;2.60;;;;;;;19.57;33.93;97786.00;5026152;28;20426;-69
2023/10/15 11:47:50;;;;;;;7.20;2.80;;;;;;;19.62;33.74;97783.59;5028620;28;20452;-69
2023/10/15 11:50:19;;;;;;;5.73;1.83;;;;;;;19.53;33.58;97774.94;5028038;28;20931;-70
2023/10/15 11:52:47;;;;;;;3.50;2.20;;;;;;;19.76;33.86;97772.00;5021838;28;20188;-70
2023/10/15 11:55:19;;;;;;;4.20;1.90;;;;;;;19.87;34.15;97773.28;5030475;28;20427;-70